Pays
Station

 

Conditions  météo  pour  Kansai International Airport  -  Japon    Japon

  
12 °C
    
 
 

METAR pour Kansai International Airport :

RJBB 211700Z AUTO 12007KT 9999 NCD 12/04 Q1028 NOSIG

 

Voici le bulletin pour Kansai International Airport - Japon.
 
Le bulletin a été fait il y a 35 minutes, à 17:00 UTC .
Le vent soufflait à la vitesse de 3.6 mètres par seconde de Est/Sud-est (120°).
 
La température était de 12 °C, avec un point de rosée à 4 °C.
La pression atmosphérique était de 1028 hPa.
L'humidité relative était de 58.0%.
 
La visibilité globale était de supérieure à 10 kilomètres.
 

 
 
 

Pays :   A   B   C   D   E   F   G   H   I   J   K   L   M   N   O   P   Q   R   S   T   U   V   W   Y   Z

 

Partenaires :  Info Météo avec Met'info
Météo Marine avec MeteoMarine.net
Infos Site  |  Infos Légales  |  Crédits  |  Confidentialité
Contactez-nous  |  Ajouter aux favoris
© 2013-2020 METAR - Tous droits réservés